sim
Sign-in with your pilot id or email,
or register
Callsign
Passwort

Schedule Details

Flight Number: GEC8472 (2A)
Departure: Mumbai Chhatrapati Shivaji International Airport (VABB) at 05:45
Arrival: Hong Kong International Airport (VHHH) at 11:15
Route: Lufthansa Cargo Cargo Schedule. Enter filed route here before submitting Pirep.

Weather Information
Getting current METAR information for VABB 191730Z 24007KT 3500 HZ SCT020 28/25 Q1010 NOSIG
Getting current METAR information for VHHH 191730Z 16004KT 120V240 9999 FEW018 29/25 Q1004 NOSIG

Schedule Frequency

Route Map